sensor_id;sensor_type;location;lat;lon;timestamp;P1;durP1;ratioP1;P2;durP2;ratioP2
8594;SDS011;4335;48.860;9.198;2023-02-17T00:00:35;5.63;;;3.37;;
8594;SDS011;4335;48.860;9.198;2023-02-17T00:03:03;5.10;;;3.50;;
8594;SDS011;4335;48.860;9.198;2023-02-17T00:05:30;7.10;;;4.20;;
8594;SDS011;4335;48.860;9.198;2023-02-17T00:07:56;4.30;;;3.40;;
8594;SDS011;4335;48.860;9.198;2023-02-17T00:10:23;4.73;;;3.70;;
8594;SDS011;4335;48.860;9.198;2023-02-17T00:12:50;4.73;;;3.43;;
8594;SDS011;4335;48.860;9.198;2023-02-17T00:15:17;5.77;;;3.30;;
8594;SDS011;4335;48.860;9.198;2023-02-17T00:17:47;6.80;;;3.50;;
8594;SDS011;4335;48.860;9.198;2023-02-17T00:20:13;5.13;;;3.37;;
8594;SDS011;4335;48.860;9.198;2023-02-17T00:22:43;5.33;;;4.00;;
8594;SDS011;4335;48.860;9.198;2023-02-17T00:25:09;9.33;;;3.53;;
8594;SDS011;4335;48.860;9.198;2023-02-17T00:27:36;5.57;;;4.03;;
8594;SDS011;4335;48.860;9.198;2023-02-17T00:30:03;4.43;;;3.53;;
8594;SDS011;4335;48.860;9.198;2023-02-17T00:32:37;7.27;;;4.03;;
8594;SDS011;4335;48.860;9.198;2023-02-17T00:35:04;5.67;;;4.17;;
8594;SDS011;4335;48.860;9.198;2023-02-17T00:37:34;6.10;;;3.67;;
8594;SDS011;4335;48.860;9.198;2023-02-17T00:40:01;6.87;;;3.83;;
8594;SDS011;4335;48.860;9.198;2023-02-17T00:42:31;7.27;;;4.27;;
8594;SDS011;4335;48.860;9.198;2023-02-17T00:44:57;6.23;;;4.47;;
8594;SDS011;4335;48.860;9.198;2023-02-17T00:47:31;5.87;;;3.53;;
8594;SDS011;4335;48.860;9.198;2023-02-17T00:49:58;5.80;;;3.57;;
8594;SDS011;4335;48.860;9.198;2023-02-17T00:52:27;6.37;;;3.83;;
8594;SDS011;4335;48.860;9.198;2023-02-17T00:55:00;4.73;;;3.33;;
8594;SDS011;4335;48.860;9.198;2023-02-17T00:57:27;5.27;;;3.30;;
8594;SDS011;4335;48.860;9.198;2023-02-17T00:59:58;4.60;;;3.70;;
8594;SDS011;4335;48.860;9.198;2023-02-17T01:02:25;7.50;;;3.97;;
8594;SDS011;4335;48.860;9.198;2023-02-17T01:04:52;4.43;;;3.70;;
8594;SDS011;4335;48.860;9.198;2023-02-17T01:07:19;5.10;;;3.30;;
8594;SDS011;4335;48.860;9.198;2023-02-17T01:09:45;4.63;;;3.30;;
8594;SDS011;4335;48.860;9.198;2023-02-17T01:12:12;5.63;;;3.10;;
8594;SDS011;4335;48.860;9.198;2023-02-17T01:14:42;6.13;;;3.97;;
8594;SDS011;4335;48.860;9.198;2023-02-17T01:17:09;5.33;;;3.40;;
8594;SDS011;4335;48.860;9.198;2023-02-17T01:19:36;4.47;;;3.40;;
8594;SDS011;4335;48.860;9.198;2023-02-17T01:22:03;4.83;;;3.40;;
8594;SDS011;4335;48.860;9.198;2023-02-17T01:24:30;6.33;;;3.23;;
8594;SDS011;4335;48.860;9.198;2023-02-17T01:27:06;6.33;;;3.07;;
8594;SDS011;4335;48.860;9.198;2023-02-17T01:29:32;8.40;;;3.80;;
8594;SDS011;4335;48.860;9.198;2023-02-17T01:32:02;5.30;;;3.77;;
8594;SDS011;4335;48.860;9.198;2023-02-17T01:34:28;4.10;;;3.10;;
8594;SDS011;4335;48.860;9.198;2023-02-17T01:36:55;4.60;;;3.47;;
8594;SDS011;4335;48.860;9.198;2023-02-17T01:39:23;5.00;;;3.17;;
8594;SDS011;4335;48.860;9.198;2023-02-17T01:41:49;3.13;;;2.83;;
8594;SDS011;4335;48.860;9.198;2023-02-17T01:44:17;4.33;;;3.03;;
8594;SDS011;4335;48.860;9.198;2023-02-17T01:46:46;4.00;;;3.27;;
8594;SDS011;4335;48.860;9.198;2023-02-17T01:49:16;3.50;;;2.80;;
8594;SDS011;4335;48.860;9.198;2023-02-17T01:51:49;3.27;;;2.90;;
8594;SDS011;4335;48.860;9.198;2023-02-17T01:54:20;5.40;;;3.30;;
8594;SDS011;4335;48.860;9.198;2023-02-17T01:56:52;5.83;;;3.23;;
8594;SDS011;4335;48.860;9.198;2023-02-17T01:59:22;6.57;;;3.57;;
8594;SDS011;4335;48.860;9.198;2023-02-17T02:01:52;5.13;;;3.30;;
8594;SDS011;4335;48.860;9.198;2023-02-17T02:04:22;6.37;;;3.40;;
8594;SDS011;4335;48.860;9.198;2023-02-17T02:06:55;5.77;;;3.20;;
8594;SDS011;4335;48.860;9.198;2023-02-17T02:09:23;4.43;;;3.47;;
8594;SDS011;4335;48.860;9.198;2023-02-17T02:11:55;5.43;;;3.00;;
8594;SDS011;4335;48.860;9.198;2023-02-17T02:14:24;4.07;;;3.10;;
8594;SDS011;4335;48.860;9.198;2023-02-17T02:16:52;9.57;;;3.70;;
8594;SDS011;4335;48.860;9.198;2023-02-17T02:19:33;4.27;;;2.83;;
8594;SDS011;4335;48.860;9.198;2023-02-17T02:22:39;3.63;;;2.87;;
8594;SDS011;4335;48.860;9.198;2023-02-17T02:25:31;5.40;;;3.43;;
8594;SDS011;4335;48.860;9.198;2023-02-17T02:28:25;4.70;;;3.13;;
8594;SDS011;4335;48.860;9.198;2023-02-17T02:34:00;3.97;;;3.30;;
8594;SDS011;4335;48.860;9.198;2023-02-17T02:36:37;4.50;;;3.03;;
8594;SDS011;4335;48.860;9.198;2023-02-17T02:39:09;4.10;;;2.73;;
8594;SDS011;4335;48.860;9.198;2023-02-17T02:41:39;4.17;;;3.13;;
8594;SDS011;4335;48.860;9.198;2023-02-17T02:44:09;5.30;;;3.33;;
8594;SDS011;4335;48.860;9.198;2023-02-17T02:46:39;3.93;;;2.87;;
8594;SDS011;4335;48.860;9.198;2023-02-17T02:49:07;4.47;;;2.77;;
8594;SDS011;4335;48.860;9.198;2023-02-17T02:51:37;5.30;;;3.03;;
8594;SDS011;4335;48.860;9.198;2023-02-17T02:57:03;4.00;;;3.00;;
8594;SDS011;4335;48.860;9.198;2023-02-17T03:00:04;4.77;;;3.10;;
8594;SDS011;4335;48.860;9.198;2023-02-17T03:02:36;6.33;;;3.23;;
8594;SDS011;4335;48.860;9.198;2023-02-17T03:05:14;5.37;;;2.90;;
8594;SDS011;4335;48.860;9.198;2023-02-17T03:07:47;3.67;;;2.43;;
8594;SDS011;4335;48.860;9.198;2023-02-17T03:10:19;6.17;;;3.10;;
8594;SDS011;4335;48.860;9.198;2023-02-17T03:12:46;4.77;;;2.97;;
8594;SDS011;4335;48.860;9.198;2023-02-17T03:15:19;5.43;;;3.33;;
8594;SDS011;4335;48.860;9.198;2023-02-17T03:17:51;7.60;;;3.83;;
8594;SDS011;4335;48.860;9.198;2023-02-17T03:20:18;6.23;;;2.63;;
8594;SDS011;4335;48.860;9.198;2023-02-17T03:22:46;5.53;;;2.80;;
8594;SDS011;4335;48.860;9.198;2023-02-17T03:25:13;4.93;;;3.43;;
8594;SDS011;4335;48.860;9.198;2023-02-17T03:27:41;3.90;;;3.00;;
8594;SDS011;4335;48.860;9.198;2023-02-17T03:30:11;6.20;;;3.67;;
8594;SDS011;4335;48.860;9.198;2023-02-17T03:32:39;5.67;;;3.73;;
8594;SDS011;4335;48.860;9.198;2023-02-17T03:35:06;5.33;;;3.47;;
8594;SDS011;4335;48.860;9.198;2023-02-17T03:37:34;3.63;;;2.93;;
8594;SDS011;4335;48.860;9.198;2023-02-17T03:40:01;4.30;;;3.30;;
8594;SDS011;4335;48.860;9.198;2023-02-17T03:42:28;4.20;;;3.10;;
8594;SDS011;4335;48.860;9.198;2023-02-17T03:44:55;6.00;;;3.57;;
8594;SDS011;4335;48.860;9.198;2023-02-17T03:47:24;5.53;;;2.93;;
8594;SDS011;4335;48.860;9.198;2023-02-17T03:49:51;4.33;;;3.10;;
8594;SDS011;4335;48.860;9.198;2023-02-17T03:52:18;4.33;;;3.07;;
8594;SDS011;4335;48.860;9.198;2023-02-17T03:54:45;5.53;;;3.10;;
8594;SDS011;4335;48.860;9.198;2023-02-17T03:57:12;4.20;;;3.07;;
8594;SDS011;4335;48.860;9.198;2023-02-17T03:59:39;5.33;;;3.43;;
8594;SDS011;4335;48.860;9.198;2023-02-17T04:02:08;4.37;;;3.47;;
8594;SDS011;4335;48.860;9.198;2023-02-17T04:04:35;4.87;;;3.50;;
8594;SDS011;4335;48.860;9.198;2023-02-17T04:07:04;4.63;;;3.60;;
8594;SDS011;4335;48.860;9.198;2023-02-17T04:09:31;6.23;;;3.50;;
8594;SDS011;4335;48.860;9.198;2023-02-17T04:12:03;6.10;;;2.87;;
8594;SDS011;4335;48.860;9.198;2023-02-17T04:14:30;5.70;;;2.80;;
8594;SDS011;4335;48.860;9.198;2023-02-17T04:16:57;4.53;;;3.43;;
8594;SDS011;4335;48.860;9.198;2023-02-17T04:19:23;5.77;;;3.53;;
8594;SDS011;4335;48.860;9.198;2023-02-17T04:21:50;5.17;;;3.40;;
8594;SDS011;4335;48.860;9.198;2023-02-17T04:24:17;4.50;;;3.23;;
8594;SDS011;4335;48.860;9.198;2023-02-17T04:26:44;5.63;;;3.53;;
8594;SDS011;4335;48.860;9.198;2023-02-17T04:29:17;6.27;;;3.83;;
8594;SDS011;4335;48.860;9.198;2023-02-17T04:31:44;4.20;;;3.33;;
8594;SDS011;4335;48.860;9.198;2023-02-17T04:34:13;4.43;;;3.27;;
8594;SDS011;4335;48.860;9.198;2023-02-17T04:36:43;8.67;;;3.67;;
8594;SDS011;4335;48.860;9.198;2023-02-17T04:39:09;6.57;;;3.53;;
8594;SDS011;4335;48.860;9.198;2023-02-17T04:41:36;6.37;;;3.70;;
8594;SDS011;4335;48.860;9.198;2023-02-17T04:44:03;5.20;;;4.30;;
8594;SDS011;4335;48.860;9.198;2023-02-17T04:46:30;7.57;;;3.30;;
8594;SDS011;4335;48.860;9.198;2023-02-17T04:49:00;4.83;;;3.07;;
8594;SDS011;4335;48.860;9.198;2023-02-17T04:51:29;6.00;;;3.33;;
8594;SDS011;4335;48.860;9.198;2023-02-17T04:53:55;4.73;;;3.10;;
8594;SDS011;4335;48.860;9.198;2023-02-17T04:56:22;7.10;;;3.07;;
8594;SDS011;4335;48.860;9.198;2023-02-17T04:58:49;9.30;;;3.30;;
8594;SDS011;4335;48.860;9.198;2023-02-17T05:01:16;5.00;;;3.40;;
8594;SDS011;4335;48.860;9.198;2023-02-17T05:03:46;6.27;;;3.47;;
8594;SDS011;4335;48.860;9.198;2023-02-17T05:06:22;5.77;;;3.43;;
8594;SDS011;4335;48.860;9.198;2023-02-17T05:08:48;4.43;;;2.97;;
8594;SDS011;4335;48.860;9.198;2023-02-17T05:11:15;5.70;;;3.10;;
8594;SDS011;4335;48.860;9.198;2023-02-17T05:13:48;5.03;;;2.90;;
8594;SDS011;4335;48.860;9.198;2023-02-17T05:16:14;6.97;;;4.73;;
8594;SDS011;4335;48.860;9.198;2023-02-17T05:18:41;7.43;;;4.23;;
8594;SDS011;4335;48.860;9.198;2023-02-17T05:21:08;4.33;;;2.80;;
8594;SDS011;4335;48.860;9.198;2023-02-17T05:23:35;4.23;;;2.90;;
8594;SDS011;4335;48.860;9.198;2023-02-17T05:26:05;7.00;;;3.57;;
8594;SDS011;4335;48.860;9.198;2023-02-17T05:28:33;4.33;;;2.40;;
8594;SDS011;4335;48.860;9.198;2023-02-17T05:31:00;6.60;;;3.07;;
8594;SDS011;4335;48.860;9.198;2023-02-17T05:33:27;3.97;;;2.50;;
8594;SDS011;4335;48.860;9.198;2023-02-17T05:35:54;4.50;;;3.10;;
8594;SDS011;4335;48.860;9.198;2023-02-17T05:38:21;3.47;;;2.60;;
8594;SDS011;4335;48.860;9.198;2023-02-17T05:40:48;5.87;;;3.00;;
8594;SDS011;4335;48.860;9.198;2023-02-17T05:43:24;5.13;;;3.57;;
8594;SDS011;4335;48.860;9.198;2023-02-17T05:45:51;4.37;;;3.70;;
8594;SDS011;4335;48.860;9.198;2023-02-17T05:48:18;8.20;;;3.80;;
8594;SDS011;4335;48.860;9.198;2023-02-17T05:50:45;3.93;;;2.87;;
8594;SDS011;4335;48.860;9.198;2023-02-17T05:53:12;5.50;;;3.10;;
8594;SDS011;4335;48.860;9.198;2023-02-17T05:55:39;4.33;;;3.43;;
8594;SDS011;4335;48.860;9.198;2023-02-17T05:58:06;5.80;;;3.40;;
8594;SDS011;4335;48.860;9.198;2023-02-17T06:00:32;3.90;;;3.47;;
8594;SDS011;4335;48.860;9.198;2023-02-17T06:03:02;5.17;;;3.27;;
8594;SDS011;4335;48.860;9.198;2023-02-17T06:05:31;5.73;;;2.73;;
8594;SDS011;4335;48.860;9.198;2023-02-17T06:08:01;6.17;;;3.07;;
8594;SDS011;4335;48.860;9.198;2023-02-17T06:10:27;3.43;;;3.13;;
8594;SDS011;4335;48.860;9.198;2023-02-17T06:12:54;5.23;;;3.27;;
8594;SDS011;4335;48.860;9.198;2023-02-17T06:15:21;5.70;;;3.33;;
8594;SDS011;4335;48.860;9.198;2023-02-17T06:17:48;8.03;;;3.20;;
8594;SDS011;4335;48.860;9.198;2023-02-17T06:20:15;4.23;;;3.00;;
8594;SDS011;4335;48.860;9.198;2023-02-17T06:22:42;4.40;;;3.50;;
8594;SDS011;4335;48.860;9.198;2023-02-17T06:25:08;6.50;;;3.73;;
8594;SDS011;4335;48.860;9.198;2023-02-17T06:27:38;11.03;;;5.30;;
8594;SDS011;4335;48.860;9.198;2023-02-17T06:30:08;4.83;;;3.40;;
8594;SDS011;4335;48.860;9.198;2023-02-17T06:32:38;7.13;;;3.60;;
8594;SDS011;4335;48.860;9.198;2023-02-17T06:35:11;4.73;;;3.40;;
8594;SDS011;4335;48.860;9.198;2023-02-17T06:37:38;5.17;;;3.20;;
8594;SDS011;4335;48.860;9.198;2023-02-17T06:40:05;4.63;;;3.60;;
8594;SDS011;4335;48.860;9.198;2023-02-17T06:42:35;4.63;;;3.50;;
8594;SDS011;4335;48.860;9.198;2023-02-17T06:45:03;6.70;;;3.17;;
8594;SDS011;4335;48.860;9.198;2023-02-17T06:47:31;5.27;;;3.20;;
8594;SDS011;4335;48.860;9.198;2023-02-17T06:49:59;5.53;;;3.23;;
8594;SDS011;4335;48.860;9.198;2023-02-17T06:52:25;7.80;;;3.90;;
8594;SDS011;4335;48.860;9.198;2023-02-17T06:54:52;4.50;;;3.20;;
8594;SDS011;4335;48.860;9.198;2023-02-17T06:57:22;9.20;;;4.97;;
8594;SDS011;4335;48.860;9.198;2023-02-17T06:59:52;7.20;;;4.10;;
8594;SDS011;4335;48.860;9.198;2023-02-17T07:02:24;9.10;;;4.87;;
8594;SDS011;4335;48.860;9.198;2023-02-17T07:04:55;5.70;;;3.30;;
8594;SDS011;4335;48.860;9.198;2023-02-17T07:07:22;6.23;;;4.03;;
8594;SDS011;4335;48.860;9.198;2023-02-17T07:09:50;5.97;;;3.87;;
8594;SDS011;4335;48.860;9.198;2023-02-17T07:12:17;7.27;;;5.23;;
8594;SDS011;4335;48.860;9.198;2023-02-17T07:14:44;6.67;;;4.50;;
8594;SDS011;4335;48.860;9.198;2023-02-17T07:17:10;7.23;;;3.93;;
8594;SDS011;4335;48.860;9.198;2023-02-17T07:19:37;7.37;;;3.63;;
8594;SDS011;4335;48.860;9.198;2023-02-17T07:22:04;12.03;;;5.73;;
8594;SDS011;4335;48.860;9.198;2023-02-17T07:24:31;6.27;;;4.47;;
8594;SDS011;4335;48.860;9.198;2023-02-17T07:27:03;10.37;;;6.23;;
8594;SDS011;4335;48.860;9.198;2023-02-17T07:29:30;7.00;;;4.10;;
8594;SDS011;4335;48.860;9.198;2023-02-17T07:32:00;5.17;;;3.60;;
8594;SDS011;4335;48.860;9.198;2023-02-17T07:34:27;4.40;;;3.43;;
8594;SDS011;4335;48.860;9.198;2023-02-17T07:36:54;5.57;;;3.77;;
8594;SDS011;4335;48.860;9.198;2023-02-17T07:39:21;5.03;;;3.00;;
8594;SDS011;4335;48.860;9.198;2023-02-17T07:41:51;5.23;;;3.70;;
8594;SDS011;4335;48.860;9.198;2023-02-17T07:44:25;4.17;;;3.27;;
8594;SDS011;4335;48.860;9.198;2023-02-17T07:46:52;7.13;;;3.60;;
8594;SDS011;4335;48.860;9.198;2023-02-17T07:49:18;7.57;;;3.13;;
8594;SDS011;4335;48.860;9.198;2023-02-17T07:51:45;4.33;;;3.17;;
8594;SDS011;4335;48.860;9.198;2023-02-17T07:54:12;5.67;;;3.27;;
8594;SDS011;4335;48.860;9.198;2023-02-17T07:56:40;5.67;;;3.17;;
8594;SDS011;4335;48.860;9.198;2023-02-17T07:59:07;4.63;;;3.83;;
8594;SDS011;4335;48.860;9.198;2023-02-17T08:01:37;5.53;;;3.53;;
8594;SDS011;4335;48.860;9.198;2023-02-17T08:04:03;7.10;;;3.40;;
8594;SDS011;4335;48.860;9.198;2023-02-17T08:06:30;5.57;;;3.90;;
8594;SDS011;4335;48.860;9.198;2023-02-17T08:08:57;4.20;;;3.63;;
8594;SDS011;4335;48.860;9.198;2023-02-17T08:11:46;3.77;;;3.00;;
8594;SDS011;4335;48.860;9.198;2023-02-17T08:14:39;5.73;;;3.20;;
8594;SDS011;4335;48.860;9.198;2023-02-17T08:17:06;6.27;;;3.57;;
8594;SDS011;4335;48.860;9.198;2023-02-17T08:19:35;5.50;;;4.17;;
8594;SDS011;4335;48.860;9.198;2023-02-17T08:22:02;5.37;;;3.30;;
8594;SDS011;4335;48.860;9.198;2023-02-17T08:24:29;3.10;;;2.80;;
8594;SDS011;4335;48.860;9.198;2023-02-17T08:26:56;5.90;;;3.20;;
8594;SDS011;4335;48.860;9.198;2023-02-17T08:29:23;4.50;;;2.73;;
8594;SDS011;4335;48.860;9.198;2023-02-17T08:31:51;5.47;;;3.40;;
8594;SDS011;4335;48.860;9.198;2023-02-17T08:34:21;4.40;;;2.90;;
8594;SDS011;4335;48.860;9.198;2023-02-17T08:36:51;4.97;;;2.70;;
8594;SDS011;4335;48.860;9.198;2023-02-17T08:39:23;5.97;;;3.33;;
8594;SDS011;4335;48.860;9.198;2023-02-17T08:41:51;6.43;;;3.17;;
8594;SDS011;4335;48.860;9.198;2023-02-17T08:44:19;3.10;;;2.73;;
8594;SDS011;4335;48.860;9.198;2023-02-17T08:46:52;3.07;;;2.80;;
8594;SDS011;4335;48.860;9.198;2023-02-17T08:49:20;7.23;;;3.03;;
8594;SDS011;4335;48.860;9.198;2023-02-17T08:51:48;2.80;;;2.03;;
8594;SDS011;4335;48.860;9.198;2023-02-17T08:54:15;6.07;;;2.70;;
8594;SDS011;4335;48.860;9.198;2023-02-17T08:56:42;3.43;;;2.80;;
8594;SDS011;4335;48.860;9.198;2023-02-17T08:59:10;3.10;;;2.33;;
8594;SDS011;4335;48.860;9.198;2023-02-17T09:01:38;3.13;;;2.60;;
8594;SDS011;4335;48.860;9.198;2023-02-17T09:04:06;3.27;;;2.97;;
8594;SDS011;4335;48.860;9.198;2023-02-17T09:06:35;4.37;;;2.40;;
8594;SDS011;4335;48.860;9.198;2023-02-17T09:09:07;3.50;;;2.13;;
8594;SDS011;4335;48.860;9.198;2023-02-17T09:11:35;4.27;;;2.93;;
8594;SDS011;4335;48.860;9.198;2023-02-17T09:14:11;3.37;;;2.70;;
8594;SDS011;4335;48.860;9.198;2023-02-17T09:16:38;4.60;;;2.90;;
8594;SDS011;4335;48.860;9.198;2023-02-17T09:19:05;4.27;;;2.67;;
8594;SDS011;4335;48.860;9.198;2023-02-17T09:21:32;4.03;;;2.53;;
8594;SDS011;4335;48.860;9.198;2023-02-17T09:23:58;5.00;;;3.17;;
8594;SDS011;4335;48.860;9.198;2023-02-17T09:26:25;3.50;;;2.17;;
8594;SDS011;4335;48.860;9.198;2023-02-17T09:28:52;4.27;;;3.00;;
8594;SDS011;4335;48.860;9.198;2023-02-17T09:31:19;4.27;;;2.40;;
8594;SDS011;4335;48.860;9.198;2023-02-17T09:33:51;3.50;;;2.30;;
8594;SDS011;4335;48.860;9.198;2023-02-17T09:36:19;3.28;;;2.53;;
8594;SDS011;4335;48.860;9.198;2023-02-17T09:38:47;5.80;;;3.27;;
8594;SDS011;4335;48.860;9.198;2023-02-17T09:41:15;5.73;;;2.97;;
8594;SDS011;4335;48.860;9.198;2023-02-17T09:43:43;3.90;;;2.47;;
8594;SDS011;4335;48.860;9.198;2023-02-17T09:46:14;4.77;;;3.00;;
8594;SDS011;4335;48.860;9.198;2023-02-17T09:48:46;3.30;;;2.60;;
8594;SDS011;4335;48.860;9.198;2023-02-17T09:51:16;2.83;;;2.50;;
8594;SDS011;4335;48.860;9.198;2023-02-17T09:53:50;2.57;;;1.90;;
8594;SDS011;4335;48.860;9.198;2023-02-17T09:56:27;5.57;;;2.93;;
8594;SDS011;4335;48.860;9.198;2023-02-17T09:58:58;2.67;;;2.33;;
8594;SDS011;4335;48.860;9.198;2023-02-17T10:01:35;4.37;;;2.37;;
8594;SDS011;4335;48.860;9.198;2023-02-17T10:04:06;2.70;;;2.30;;
8594;SDS011;4335;48.860;9.198;2023-02-17T10:06:39;2.80;;;2.20;;
8594;SDS011;4335;48.860;9.198;2023-02-17T10:09:12;2.63;;;2.27;;
8594;SDS011;4335;48.860;9.198;2023-02-17T10:11:44;4.27;;;2.43;;
8594;SDS011;4335;48.860;9.198;2023-02-17T10:14:18;4.68;;;2.80;;
8594;SDS011;4335;48.860;9.198;2023-02-17T10:16:50;4.27;;;3.40;;
8594;SDS011;4335;48.860;9.198;2023-02-17T10:19:24;2.37;;;1.90;;
8594;SDS011;4335;48.860;9.198;2023-02-17T10:21:57;2.80;;;2.33;;
8594;SDS011;4335;48.860;9.198;2023-02-17T10:24:36;3.67;;;2.50;;
8594;SDS011;4335;48.860;9.198;2023-02-17T10:27:15;3.27;;;1.70;;
8594;SDS011;4335;48.860;9.198;2023-02-17T10:29:58;3.13;;;1.87;;
8594;SDS011;4335;48.860;9.198;2023-02-17T10:32:33;3.00;;;2.13;;
8594;SDS011;4335;48.860;9.198;2023-02-17T10:35:14;3.53;;;2.20;;
8594;SDS011;4335;48.860;9.198;2023-02-17T10:37:44;4.23;;;2.70;;
8594;SDS011;4335;48.860;9.198;2023-02-17T10:40:14;2.67;;;2.03;;
8594;SDS011;4335;48.860;9.198;2023-02-17T10:42:48;2.57;;;2.37;;
8594;SDS011;4335;48.860;9.198;2023-02-17T10:45:20;3.37;;;2.00;;
8594;SDS011;4335;48.860;9.198;2023-02-17T10:47:55;2.97;;;1.80;;
8594;SDS011;4335;48.860;9.198;2023-02-17T10:50:27;2.87;;;1.70;;
8594;SDS011;4335;48.860;9.198;2023-02-17T10:52:55;2.27;;;1.70;;
8594;SDS011;4335;48.860;9.198;2023-02-17T10:55:23;3.67;;;1.90;;
8594;SDS011;4335;48.860;9.198;2023-02-17T10:58:05;2.20;;;1.50;;
8594;SDS011;4335;48.860;9.198;2023-02-17T11:00:36;1.93;;;1.43;;
8594;SDS011;4335;48.860;9.198;2023-02-17T11:03:05;2.83;;;1.80;;
8594;SDS011;4335;48.860;9.198;2023-02-17T11:05:51;3.73;;;1.77;;
8594;SDS011;4335;48.860;9.198;2023-02-17T11:08:27;3.10;;;2.07;;
8594;SDS011;4335;48.860;9.198;2023-02-17T11:10:57;2.13;;;1.70;;
8594;SDS011;4335;48.860;9.198;2023-02-17T11:13:34;4.80;;;1.60;;
8594;SDS011;4335;48.860;9.198;2023-02-17T11:16:06;2.70;;;1.67;;
8594;SDS011;4335;48.860;9.198;2023-02-17T11:18:47;2.30;;;1.40;;
8594;SDS011;4335;48.860;9.198;2023-02-17T11:21:21;3.97;;;1.70;;
8594;SDS011;4335;48.860;9.198;2023-02-17T11:23:48;1.73;;;1.30;;
8594;SDS011;4335;48.860;9.198;2023-02-17T11:26:21;1.20;;;1.10;;
8594;SDS011;4335;48.860;9.198;2023-02-17T11:28:49;1.67;;;1.50;;
8594;SDS011;4335;48.860;9.198;2023-02-17T11:31:23;1.20;;;1.10;;
8594;SDS011;4335;48.860;9.198;2023-02-17T11:33:52;1.67;;;1.53;;
8594;SDS011;4335;48.860;9.198;2023-02-17T11:36:24;2.50;;;1.40;;
8594;SDS011;4335;48.860;9.198;2023-02-17T11:38:52;1.40;;;1.30;;
8594;SDS011;4335;48.860;9.198;2023-02-17T11:41:19;5.80;;;2.60;;
8594;SDS011;4335;48.860;9.198;2023-02-17T11:43:53;2.20;;;1.60;;
8594;SDS011;4335;48.860;9.198;2023-02-17T11:46:25;2.70;;;1.90;;
8594;SDS011;4335;48.860;9.198;2023-02-17T11:52:03;1.80;;;1.40;;
8594;SDS011;4335;48.860;9.198;2023-02-17T11:54:42;4.17;;;2.90;;
8594;SDS011;4335;48.860;9.198;2023-02-17T11:57:25;4.80;;;3.17;;
8594;SDS011;4335;48.860;9.198;2023-02-17T12:00:08;2.87;;;2.53;;
8594;SDS011;4335;48.860;9.198;2023-02-17T12:02:43;8.10;;;6.10;;
8594;SDS011;4335;48.860;9.198;2023-02-17T12:05:36;3.70;;;2.60;;
8594;SDS011;4335;48.860;9.198;2023-02-17T12:08:17;3.83;;;2.63;;
8594;SDS011;4335;48.860;9.198;2023-02-17T12:10:53;2.13;;;1.00;;
8594;SDS011;4335;48.860;9.198;2023-02-17T12:13:30;1.73;;;1.10;;
8594;SDS011;4335;48.860;9.198;2023-02-17T12:16:11;2.07;;;1.87;;
8594;SDS011;4335;48.860;9.198;2023-02-17T12:18:48;1.77;;;1.60;;
8594;SDS011;4335;48.860;9.198;2023-02-17T12:21:28;3.37;;;1.53;;
8594;SDS011;4335;48.860;9.198;2023-02-17T12:24:15;1.80;;;1.40;;
8594;SDS011;4335;48.860;9.198;2023-02-17T12:27:02;2.07;;;1.57;;
8594;SDS011;4335;48.860;9.198;2023-02-17T12:29:51;3.53;;;1.37;;
8594;SDS011;4335;48.860;9.198;2023-02-17T12:32:36;1.40;;;1.30;;
8594;SDS011;4335;48.860;9.198;2023-02-17T12:35:23;1.53;;;1.37;;
8594;SDS011;4335;48.860;9.198;2023-02-17T12:37:56;2.73;;;1.87;;
8594;SDS011;4335;48.860;9.198;2023-02-17T12:40:31;2.20;;;1.90;;
8594;SDS011;4335;48.860;9.198;2023-02-17T12:43:05;3.90;;;1.20;;
8594;SDS011;4335;48.860;9.198;2023-02-17T12:45:41;2.20;;;1.27;;
8594;SDS011;4335;48.860;9.198;2023-02-17T12:48:14;1.23;;;1.00;;
8594;SDS011;4335;48.860;9.198;2023-02-17T12:50:50;1.30;;;1.20;;
8594;SDS011;4335;48.860;9.198;2023-02-17T12:53:30;2.17;;;1.50;;
8594;SDS011;4335;48.860;9.198;2023-02-17T12:59:04;1.77;;;1.37;;
8594;SDS011;4335;48.860;9.198;2023-02-17T13:01:37;2.33;;;1.63;;
8594;SDS011;4335;48.860;9.198;2023-02-17T13:04:11;1.70;;;1.50;;
8594;SDS011;4335;48.860;9.198;2023-02-17T13:06:43;2.50;;;2.00;;
8594;SDS011;4335;48.860;9.198;2023-02-17T13:09:16;3.97;;;2.63;;
8594;SDS011;4335;48.860;9.198;2023-02-17T13:11:50;2.43;;;2.00;;
8594;SDS011;4335;48.860;9.198;2023-02-17T13:14:23;1.20;;;1.10;;
8594;SDS011;4335;48.860;9.198;2023-02-17T13:16:52;4.00;;;1.60;;
8594;SDS011;4335;48.860;9.198;2023-02-17T13:19:26;1.70;;;1.10;;
8594;SDS011;4335;48.860;9.198;2023-02-17T13:21:55;1.33;;;1.23;;
8594;SDS011;4335;48.860;9.198;2023-02-17T13:24:30;1.63;;;1.23;;
8594;SDS011;4335;48.860;9.198;2023-02-17T13:27:08;2.30;;;1.73;;
8594;SDS011;4335;48.860;9.198;2023-02-17T13:29:36;1.80;;;1.50;;
8594;SDS011;4335;48.860;9.198;2023-02-17T13:32:04;1.60;;;1.50;;
8594;SDS011;4335;48.860;9.198;2023-02-17T13:34:33;2.10;;;1.40;;
8594;SDS011;4335;48.860;9.198;2023-02-17T13:37:01;2.30;;;1.17;;
8594;SDS011;4335;48.860;9.198;2023-02-17T13:39:43;1.67;;;1.07;;
8594;SDS011;4335;48.860;9.198;2023-02-17T13:45:10;2.07;;;1.30;;
8594;SDS011;4335;48.860;9.198;2023-02-17T13:47:39;1.23;;;0.87;;
8594;SDS011;4335;48.860;9.198;2023-02-17T13:50:24;2.17;;;1.83;;
8594;SDS011;4335;48.860;9.198;2023-02-17T13:52:52;1.80;;;1.50;;
8594;SDS011;4335;48.860;9.198;2023-02-17T13:55:20;1.77;;;1.53;;
8594;SDS011;4335;48.860;9.198;2023-02-17T13:57:51;2.80;;;1.53;;
8594;SDS011;4335;48.860;9.198;2023-02-17T14:00:20;1.30;;;1.10;;
8594;SDS011;4335;48.860;9.198;2023-02-17T14:02:48;2.17;;;1.87;;
8594;SDS011;4335;48.860;9.198;2023-02-17T14:05:18;2.97;;;2.20;;
8594;SDS011;4335;48.860;9.198;2023-02-17T14:07:46;1.57;;;1.23;;
8594;SDS011;4335;48.860;9.198;2023-02-17T14:10:20;1.13;;;1.03;;
8594;SDS011;4335;48.860;9.198;2023-02-17T14:12:49;4.33;;;1.70;;
8594;SDS011;4335;48.860;9.198;2023-02-17T14:15:18;2.57;;;1.57;;
8594;SDS011;4335;48.860;9.198;2023-02-17T14:17:47;1.60;;;1.10;;
8594;SDS011;4335;48.860;9.198;2023-02-17T14:20:27;2.73;;;1.50;;
8594;SDS011;4335;48.860;9.198;2023-02-17T14:22:59;3.00;;;2.00;;
8594;SDS011;4335;48.860;9.198;2023-02-17T14:25:29;1.60;;;1.40;;
8594;SDS011;4335;48.860;9.198;2023-02-17T14:27:58;2.00;;;1.20;;
8594;SDS011;4335;48.860;9.198;2023-02-17T14:30:32;1.57;;;1.20;;
8594;SDS011;4335;48.860;9.198;2023-02-17T14:33:01;1.60;;;1.00;;
8594;SDS011;4335;48.860;9.198;2023-02-17T14:35:32;1.10;;;1.00;;
8594;SDS011;4335;48.860;9.198;2023-02-17T14:38:18;1.10;;;1.00;;
8594;SDS011;4335;48.860;9.198;2023-02-17T14:40:46;2.77;;;1.70;;
8594;SDS011;4335;48.860;9.198;2023-02-17T14:43:17;2.80;;;1.30;;
8594;SDS011;4335;48.860;9.198;2023-02-17T14:45:45;2.07;;;1.70;;
8594;SDS011;4335;48.860;9.198;2023-02-17T14:48:11;2.63;;;1.60;;
8594;SDS011;4335;48.860;9.198;2023-02-17T14:50:41;1.50;;;1.40;;
8594;SDS011;4335;48.860;9.198;2023-02-17T14:53:12;2.50;;;2.30;;
8594;SDS011;4335;48.860;9.198;2023-02-17T14:55:44;2.63;;;2.40;;
8594;SDS011;4335;48.860;9.198;2023-02-17T14:58:16;3.47;;;1.70;;
8594;SDS011;4335;48.860;9.198;2023-02-17T15:00:50;3.60;;;1.80;;
8594;SDS011;4335;48.860;9.198;2023-02-17T15:03:20;2.97;;;1.87;;
8594;SDS011;4335;48.860;9.198;2023-02-17T15:05:47;2.93;;;1.93;;
8594;SDS011;4335;48.860;9.198;2023-02-17T15:08:14;1.80;;;1.40;;
8594;SDS011;4335;48.860;9.198;2023-02-17T15:10:43;2.63;;;1.80;;
8594;SDS011;4335;48.860;9.198;2023-02-17T15:13:11;4.40;;;2.90;;
8594;SDS011;4335;48.860;9.198;2023-02-17T15:15:40;3.50;;;2.60;;
8594;SDS011;4335;48.860;9.198;2023-02-17T15:18:12;2.63;;;1.97;;
8594;SDS011;4335;48.860;9.198;2023-02-17T15:20:41;2.33;;;2.13;;
8594;SDS011;4335;48.860;9.198;2023-02-17T15:23:10;2.73;;;1.40;;
8594;SDS011;4335;48.860;9.198;2023-02-17T15:25:40;4.97;;;1.80;;
8594;SDS011;4335;48.860;9.198;2023-02-17T15:28:07;2.20;;;1.60;;
8594;SDS011;4335;48.860;9.198;2023-02-17T15:30:38;3.13;;;1.93;;
8594;SDS011;4335;48.860;9.198;2023-02-17T15:33:07;2.07;;;1.80;;
8594;SDS011;4335;48.860;9.198;2023-02-17T15:35:36;5.03;;;3.33;;
8594;SDS011;4335;48.860;9.198;2023-02-17T15:38:04;3.37;;;2.77;;
8594;SDS011;4335;48.860;9.198;2023-02-17T15:40:34;3.73;;;2.37;;
8594;SDS011;4335;48.860;9.198;2023-02-17T15:43:01;3.37;;;2.70;;
8594;SDS011;4335;48.860;9.198;2023-02-17T15:45:28;3.63;;;2.20;;
8594;SDS011;4335;48.860;9.198;2023-02-17T15:47:59;4.47;;;3.30;;
8594;SDS011;4335;48.860;9.198;2023-02-17T15:50:32;2.67;;;1.93;;